sensor_id;sensor_type;location;lat;lon;timestamp;temperature;humidity
47845;DHT22;33605;48.822;8.796;2023-11-21T00:00:13;11.10;55.20
47845;DHT22;33605;48.822;8.796;2023-11-21T00:02:44;11.10;55.20
47845;DHT22;33605;48.822;8.796;2023-11-21T00:05:11;11.10;55.20
47845;DHT22;33605;48.822;8.796;2023-11-21T00:07:39;11.10;55.20
47845;DHT22;33605;48.822;8.796;2023-11-21T00:10:06;11.10;55.20
47845;DHT22;33605;48.822;8.796;2023-11-21T00:12:34;11.20;55.30
47845;DHT22;33605;48.822;8.796;2023-11-21T00:15:00;11.20;55.40
47845;DHT22;33605;48.822;8.796;2023-11-21T00:17:27;11.20;55.40
47845;DHT22;33605;48.822;8.796;2023-11-21T00:19:53;11.20;55.40
47845;DHT22;33605;48.822;8.796;2023-11-21T00:22:18;11.20;55.50
47845;DHT22;33605;48.822;8.796;2023-11-21T00:24:45;11.20;55.60
47845;DHT22;33605;48.822;8.796;2023-11-21T00:27:11;11.20;55.70
47845;DHT22;33605;48.822;8.796;2023-11-21T00:29:40;11.20;55.80
47845;DHT22;33605;48.822;8.796;2023-11-21T00:32:06;11.20;55.90
47845;DHT22;33605;48.822;8.796;2023-11-21T00:34:32;11.20;56.00
47845;DHT22;33605;48.822;8.796;2023-11-21T00:36:59;11.20;56.00
47845;DHT22;33605;48.822;8.796;2023-11-21T00:39:25;11.20;56.10
47845;DHT22;33605;48.822;8.796;2023-11-21T00:41:52;11.30;56.30
47845;DHT22;33605;48.822;8.796;2023-11-21T00:44:18;11.30;56.40
47845;DHT22;33605;48.822;8.796;2023-11-21T00:46:44;11.30;56.40
47845;DHT22;33605;48.822;8.796;2023-11-21T00:49:09;11.30;56.40
47845;DHT22;33605;48.822;8.796;2023-11-21T00:51:35;11.30;56.50
47845;DHT22;33605;48.822;8.796;2023-11-21T00:54:01;11.30;56.50
47845;DHT22;33605;48.822;8.796;2023-11-21T00:56:27;11.30;56.60
47845;DHT22;33605;48.822;8.796;2023-11-21T00:58:53;11.30;56.70
47845;DHT22;33605;48.822;8.796;2023-11-21T01:01:19;11.40;56.90
47845;DHT22;33605;48.822;8.796;2023-11-21T01:03:48;11.40;57.00
47845;DHT22;33605;48.822;8.796;2023-11-21T01:06:15;11.40;57.10
47845;DHT22;33605;48.822;8.796;2023-11-21T01:08:40;11.40;57.10
47845;DHT22;33605;48.822;8.796;2023-11-21T01:11:06;11.40;57.00
47845;DHT22;33605;48.822;8.796;2023-11-21T01:13:34;11.40;57.10
47845;DHT22;33605;48.822;8.796;2023-11-21T01:16:01;11.40;57.10
47845;DHT22;33605;48.822;8.796;2023-11-21T01:18:27;11.40;57.20
47845;DHT22;33605;48.822;8.796;2023-11-21T01:20:54;11.50;57.40
47845;DHT22;33605;48.822;8.796;2023-11-21T01:23:20;11.50;57.50
47845;DHT22;33605;48.822;8.796;2023-11-21T01:25:49;11.50;57.60
47845;DHT22;33605;48.822;8.796;2023-11-21T01:28:14;11.50;57.70
47845;DHT22;33605;48.822;8.796;2023-11-21T01:30:40;11.50;57.60
47845;DHT22;33605;48.822;8.796;2023-11-21T01:33:05;11.50;57.70
47845;DHT22;33605;48.822;8.796;2023-11-21T01:35:31;11.50;57.70
47845;DHT22;33605;48.822;8.796;2023-11-21T01:38:00;11.50;57.60
47845;DHT22;33605;48.822;8.796;2023-11-21T01:40:25;11.50;58.20
47845;DHT22;33605;48.822;8.796;2023-11-21T01:42:53;11.50;57.60
47845;DHT22;33605;48.822;8.796;2023-11-21T01:45:19;11.50;57.60
47845;DHT22;33605;48.822;8.796;2023-11-21T01:47:45;11.60;57.70
47845;DHT22;33605;48.822;8.796;2023-11-21T01:50:14;11.60;57.70
47845;DHT22;33605;48.822;8.796;2023-11-21T01:52:46;11.60;57.80
47845;DHT22;33605;48.822;8.796;2023-11-21T01:55:15;11.50;57.70
47845;DHT22;33605;48.822;8.796;2023-11-21T01:57:43;11.60;57.80
47845;DHT22;33605;48.822;8.796;2023-11-21T02:00:09;11.60;57.80
47845;DHT22;33605;48.822;8.796;2023-11-21T02:02:48;11.60;57.90
47845;DHT22;33605;48.822;8.796;2023-11-21T02:05:15;11.60;57.90
47845;DHT22;33605;48.822;8.796;2023-11-21T02:07:42;11.60;57.90
47845;DHT22;33605;48.822;8.796;2023-11-21T02:10:09;11.60;57.90
47845;DHT22;33605;48.822;8.796;2023-11-21T02:12:35;11.60;57.90
47845;DHT22;33605;48.822;8.796;2023-11-21T02:15:04;11.60;57.90
47845;DHT22;33605;48.822;8.796;2023-11-21T02:17:35;11.60;58.00
47845;DHT22;33605;48.822;8.796;2023-11-21T02:20:02;11.60;58.00
47845;DHT22;33605;48.822;8.796;2023-11-21T02:22:31;11.60;58.00
47845;DHT22;33605;48.822;8.796;2023-11-21T02:24:59;11.70;58.20
47845;DHT22;33605;48.822;8.796;2023-11-21T02:27:25;11.70;58.20
47845;DHT22;33605;48.822;8.796;2023-11-21T02:29:52;11.70;58.20
47845;DHT22;33605;48.822;8.796;2023-11-21T02:32:18;11.70;58.30
47845;DHT22;33605;48.822;8.796;2023-11-21T02:34:44;11.70;58.20
47845;DHT22;33605;48.822;8.796;2023-11-21T02:37:10;11.70;58.20
47845;DHT22;33605;48.822;8.796;2023-11-21T02:39:36;11.70;58.30
47845;DHT22;33605;48.822;8.796;2023-11-21T02:42:02;11.70;58.30
47845;DHT22;33605;48.822;8.796;2023-11-21T02:44:28;11.80;58.40
47845;DHT22;33605;48.822;8.796;2023-11-21T02:46:54;11.80;58.50
47845;DHT22;33605;48.822;8.796;2023-11-21T02:49:20;11.80;58.50
47845;DHT22;33605;48.822;8.796;2023-11-21T02:51:45;11.80;58.50
47845;DHT22;33605;48.822;8.796;2023-11-21T02:54:11;11.80;58.50
47845;DHT22;33605;48.822;8.796;2023-11-21T02:56:37;11.80;58.50
47845;DHT22;33605;48.822;8.796;2023-11-21T02:59:06;11.80;58.60
47845;DHT22;33605;48.822;8.796;2023-11-21T03:01:31;11.80;58.50
47845;DHT22;33605;48.822;8.796;2023-11-21T03:03:57;11.80;58.50
47845;DHT22;33605;48.822;8.796;2023-11-21T03:06:22;11.80;58.60
47845;DHT22;33605;48.822;8.796;2023-11-21T03:08:48;11.80;58.60
47845;DHT22;33605;48.822;8.796;2023-11-21T03:11:14;11.80;58.60
47845;DHT22;33605;48.822;8.796;2023-11-21T03:13:40;11.80;58.60
47845;DHT22;33605;48.822;8.796;2023-11-21T03:16:10;11.80;58.60
47845;DHT22;33605;48.822;8.796;2023-11-21T03:18:37;11.80;58.60
47845;DHT22;33605;48.822;8.796;2023-11-21T03:21:06;11.80;58.70
47845;DHT22;33605;48.822;8.796;2023-11-21T03:23:34;11.80;58.80
47845;DHT22;33605;48.822;8.796;2023-11-21T03:26:00;11.70;58.70
47845;DHT22;33605;48.822;8.796;2023-11-21T03:28:26;11.70;58.70
47845;DHT22;33605;48.822;8.796;2023-11-21T03:30:53;11.70;58.80
47845;DHT22;33605;48.822;8.796;2023-11-21T03:33:18;11.70;58.90
47845;DHT22;33605;48.822;8.796;2023-11-21T03:35:44;11.70;59.00
47845;DHT22;33605;48.822;8.796;2023-11-21T03:38:10;11.70;59.10
47845;DHT22;33605;48.822;8.796;2023-11-21T03:40:36;11.70;59.10
47845;DHT22;33605;48.822;8.796;2023-11-21T03:43:01;11.70;59.20
47845;DHT22;33605;48.822;8.796;2023-11-21T03:45:27;11.70;59.30
47845;DHT22;33605;48.822;8.796;2023-11-21T03:47:52;11.60;59.20
47845;DHT22;33605;48.822;8.796;2023-11-21T03:50:21;11.60;59.30
47845;DHT22;33605;48.822;8.796;2023-11-21T03:52:49;11.60;59.30
47845;DHT22;33605;48.822;8.796;2023-11-21T03:55:15;11.60;59.30
47845;DHT22;33605;48.822;8.796;2023-11-21T03:57:40;11.60;59.40
47845;DHT22;33605;48.822;8.796;2023-11-21T04:00:07;11.60;59.40
47845;DHT22;33605;48.822;8.796;2023-11-21T04:02:34;11.60;59.40
47845;DHT22;33605;48.822;8.796;2023-11-21T04:05:00;11.60;59.30
47845;DHT22;33605;48.822;8.796;2023-11-21T04:07:25;11.60;59.30
47845;DHT22;33605;48.822;8.796;2023-11-21T04:09:51;11.60;59.30
47845;DHT22;33605;48.822;8.796;2023-11-21T04:12:17;11.70;59.40
47845;DHT22;33605;48.822;8.796;2023-11-21T04:14:43;11.70;59.30
47845;DHT22;33605;48.822;8.796;2023-11-21T04:17:08;11.70;59.20
47845;DHT22;33605;48.822;8.796;2023-11-21T04:19:34;11.70;59.10
47845;DHT22;33605;48.822;8.796;2023-11-21T04:22:00;11.70;59.10
47845;DHT22;33605;48.822;8.796;2023-11-21T04:24:25;11.70;59.00
47845;DHT22;33605;48.822;8.796;2023-11-21T04:26:51;11.70;59.00
47845;DHT22;33605;48.822;8.796;2023-11-21T04:29:17;11.70;59.00
47845;DHT22;33605;48.822;8.796;2023-11-21T04:31:42;11.70;58.90
47845;DHT22;33605;48.822;8.796;2023-11-21T04:34:08;11.80;59.10
47845;DHT22;33605;48.822;8.796;2023-11-21T04:36:33;11.80;59.00
47845;DHT22;33605;48.822;8.796;2023-11-21T04:39:00;11.70;58.90
47845;DHT22;33605;48.822;8.796;2023-11-21T04:41:26;11.80;59.00
47845;DHT22;33605;48.822;8.796;2023-11-21T04:43:51;11.80;59.00
47845;DHT22;33605;48.822;8.796;2023-11-21T04:46:17;11.80;59.00
47845;DHT22;33605;48.822;8.796;2023-11-21T04:48:43;11.80;58.90
47845;DHT22;33605;48.822;8.796;2023-11-21T04:51:09;11.80;58.90
47845;DHT22;33605;48.822;8.796;2023-11-21T04:53:37;11.80;58.90
47845;DHT22;33605;48.822;8.796;2023-11-21T04:56:02;11.80;58.90
47845;DHT22;33605;48.822;8.796;2023-11-21T04:58:29;11.90;59.00
47845;DHT22;33605;48.822;8.796;2023-11-21T05:00:54;11.90;59.00
47845;DHT22;33605;48.822;8.796;2023-11-21T05:03:20;11.90;58.90
47845;DHT22;33605;48.822;8.796;2023-11-21T05:05:46;11.90;59.00
47845;DHT22;33605;48.822;8.796;2023-11-21T05:08:12;11.90;59.00
47845;DHT22;33605;48.822;8.796;2023-11-21T05:10:38;11.90;59.00
47845;DHT22;33605;48.822;8.796;2023-11-21T05:13:04;11.90;58.90
47845;DHT22;33605;48.822;8.796;2023-11-21T05:15:35;11.80;58.80
47845;DHT22;33605;48.822;8.796;2023-11-21T05:18:00;11.80;58.80
47845;DHT22;33605;48.822;8.796;2023-11-21T05:20:26;11.80;58.80
47845;DHT22;33605;48.822;8.796;2023-11-21T05:22:51;11.80;58.80
47845;DHT22;33605;48.822;8.796;2023-11-21T05:25:17;11.70;58.70
47845;DHT22;33605;48.822;8.796;2023-11-21T05:27:46;11.70;58.80
47845;DHT22;33605;48.822;8.796;2023-11-21T05:30:15;11.70;58.90
47845;DHT22;33605;48.822;8.796;2023-11-21T05:32:41;11.60;58.80
47845;DHT22;33605;48.822;8.796;2023-11-21T05:35:12;11.60;58.90
47845;DHT22;33605;48.822;8.796;2023-11-21T05:37:41;11.60;58.90
47845;DHT22;33605;48.822;8.796;2023-11-21T05:40:08;11.60;58.90
47845;DHT22;33605;48.822;8.796;2023-11-21T05:42:34;11.60;59.00
47845;DHT22;33605;48.822;8.796;2023-11-21T05:45:01;11.60;59.00
47845;DHT22;33605;48.822;8.796;2023-11-21T05:47:41;11.60;59.10
47845;DHT22;33605;48.822;8.796;2023-11-21T05:50:11;11.60;59.10
47845;DHT22;33605;48.822;8.796;2023-11-21T05:52:38;11.70;59.20
47845;DHT22;33605;48.822;8.796;2023-11-21T05:55:08;11.70;59.10
47845;DHT22;33605;48.822;8.796;2023-11-21T05:57:34;11.70;59.10
47845;DHT22;33605;48.822;8.796;2023-11-21T06:00:03;11.70;59.00
47845;DHT22;33605;48.822;8.796;2023-11-21T06:02:36;11.70;59.00
47845;DHT22;33605;48.822;8.796;2023-11-21T06:05:02;11.70;59.00
47845;DHT22;33605;48.822;8.796;2023-11-21T06:07:29;11.70;58.90
47845;DHT22;33605;48.822;8.796;2023-11-21T06:09:55;11.80;59.00
47845;DHT22;33605;48.822;8.796;2023-11-21T06:12:20;11.80;59.00
47845;DHT22;33605;48.822;8.796;2023-11-21T06:14:46;11.70;58.80
47845;DHT22;33605;48.822;8.796;2023-11-21T06:17:13;11.80;58.80
47845;DHT22;33605;48.822;8.796;2023-11-21T06:19:39;11.80;58.80
47845;DHT22;33605;48.822;8.796;2023-11-21T06:22:05;11.80;58.70
47845;DHT22;33605;48.822;8.796;2023-11-21T06:24:31;11.80;58.60
47845;DHT22;33605;48.822;8.796;2023-11-21T06:26:57;11.80;58.50
47845;DHT22;33605;48.822;8.796;2023-11-21T06:29:24;11.80;58.50
47845;DHT22;33605;48.822;8.796;2023-11-21T06:31:49;11.80;58.50
47845;DHT22;33605;48.822;8.796;2023-11-21T06:34:15;11.80;58.50
47845;DHT22;33605;48.822;8.796;2023-11-21T06:36:40;11.80;58.60
47845;DHT22;33605;48.822;8.796;2023-11-21T06:39:06;11.80;59.20
47845;DHT22;33605;48.822;8.796;2023-11-21T06:41:33;11.80;58.60
47845;DHT22;33605;48.822;8.796;2023-11-21T06:43:59;11.80;58.70
47845;DHT22;33605;48.822;8.796;2023-11-21T06:46:25;11.80;58.80
47845;DHT22;33605;48.822;8.796;2023-11-21T06:48:50;11.80;58.80
47845;DHT22;33605;48.822;8.796;2023-11-21T06:51:17;11.80;58.90
47845;DHT22;33605;48.822;8.796;2023-11-21T06:53:43;11.80;58.90
47845;DHT22;33605;48.822;8.796;2023-11-21T06:56:18;11.90;59.00
47845;DHT22;33605;48.822;8.796;2023-11-21T06:58:45;11.90;59.00
47845;DHT22;33605;48.822;8.796;2023-11-21T07:01:14;11.90;59.00
47845;DHT22;33605;48.822;8.796;2023-11-21T07:03:40;11.90;58.90
47845;DHT22;33605;48.822;8.796;2023-11-21T07:06:07;11.90;58.90
47845;DHT22;33605;48.822;8.796;2023-11-21T07:08:33;11.90;58.90
47845;DHT22;33605;48.822;8.796;2023-11-21T07:10:59;12.00;58.90
47845;DHT22;33605;48.822;8.796;2023-11-21T07:13:24;12.00;58.90
47845;DHT22;33605;48.822;8.796;2023-11-21T07:15:50;12.00;58.80
47845;DHT22;33605;48.822;8.796;2023-11-21T07:18:15;12.00;58.80
47845;DHT22;33605;48.822;8.796;2023-11-21T07:20:41;12.00;58.80
47845;DHT22;33605;48.822;8.796;2023-11-21T07:23:07;12.00;58.70
47845;DHT22;33605;48.822;8.796;2023-11-21T07:25:33;12.10;58.80
47845;DHT22;33605;48.822;8.796;2023-11-21T07:28:01;12.10;58.80
47845;DHT22;33605;48.822;8.796;2023-11-21T07:30:27;12.10;58.80
47845;DHT22;33605;48.822;8.796;2023-11-21T07:32:53;12.10;58.80
47845;DHT22;33605;48.822;8.796;2023-11-21T07:35:19;12.10;58.90
47845;DHT22;33605;48.822;8.796;2023-11-21T07:37:44;12.10;58.90
47845;DHT22;33605;48.822;8.796;2023-11-21T07:40:10;12.10;58.90
47845;DHT22;33605;48.822;8.796;2023-11-21T07:42:37;12.20;59.10
47845;DHT22;33605;48.822;8.796;2023-11-21T07:45:04;12.10;59.00
47845;DHT22;33605;48.822;8.796;2023-11-21T07:47:29;12.10;58.90
47845;DHT22;33605;48.822;8.796;2023-11-21T07:49:55;12.10;59.60
47845;DHT22;33605;48.822;8.796;2023-11-21T07:52:22;12.20;59.10
47845;DHT22;33605;48.822;8.796;2023-11-21T07:54:48;12.20;59.20
47845;DHT22;33605;48.822;8.796;2023-11-21T07:57:13;12.20;59.20
47845;DHT22;33605;48.822;8.796;2023-11-21T07:59:42;12.20;59.20
47845;DHT22;33605;48.822;8.796;2023-11-21T08:02:08;12.20;59.30
47845;DHT22;33605;48.822;8.796;2023-11-21T08:04:33;12.20;59.30
47845;DHT22;33605;48.822;8.796;2023-11-21T08:07:01;12.30;59.30
47845;DHT22;33605;48.822;8.796;2023-11-21T08:09:27;12.30;59.30
47845;DHT22;33605;48.822;8.796;2023-11-21T08:11:53;12.30;59.30
47845;DHT22;33605;48.822;8.796;2023-11-21T08:14:18;12.40;59.40
47845;DHT22;33605;48.822;8.796;2023-11-21T08:16:45;12.40;59.40
47845;DHT22;33605;48.822;8.796;2023-11-21T08:19:11;12.40;59.40
47845;DHT22;33605;48.822;8.796;2023-11-21T08:21:37;12.40;59.40
47845;DHT22;33605;48.822;8.796;2023-11-21T17:22:31;12.50;59.40
47845;DHT22;33605;48.822;8.796;2023-11-21T17:24:56;12.70;58.60
47845;DHT22;33605;48.822;8.796;2023-11-21T17:27:23;12.70;58.80
47845;DHT22;33605;48.822;8.796;2023-11-21T17:29:51;12.70;58.80
47845;DHT22;33605;48.822;8.796;2023-11-21T17:32:17;12.60;58.80
47845;DHT22;33605;48.822;8.796;2023-11-21T17:34:42;12.40;59.30
47845;DHT22;33605;48.822;8.796;2023-11-21T17:37:08;12.40;59.40
47845;DHT22;33605;48.822;8.796;2023-11-21T17:39:33;12.40;59.50
47845;DHT22;33605;48.822;8.796;2023-11-21T17:41:59;12.50;59.60
47845;DHT22;33605;48.822;8.796;2023-11-21T17:44:26;12.50;59.50
47845;DHT22;33605;48.822;8.796;2023-11-21T17:46:51;12.50;59.60
47845;DHT22;33605;48.822;8.796;2023-11-21T17:49:17;12.50;59.60
47845;DHT22;33605;48.822;8.796;2023-11-21T17:51:43;12.50;59.60
47845;DHT22;33605;48.822;8.796;2023-11-21T17:54:09;12.50;59.70
47845;DHT22;33605;48.822;8.796;2023-11-21T17:56:35;12.50;59.70
47845;DHT22;33605;48.822;8.796;2023-11-21T17:59:04;12.50;59.80
47845;DHT22;33605;48.822;8.796;2023-11-21T18:01:35;12.50;60.00
47845;DHT22;33605;48.822;8.796;2023-11-21T18:04:02;12.50;59.90
47845;DHT22;33605;48.822;8.796;2023-11-21T18:06:28;12.50;59.90
47845;DHT22;33605;48.822;8.796;2023-11-21T18:08:53;12.50;59.90
47845;DHT22;33605;48.822;8.796;2023-11-21T18:11:22;12.50;60.00
47845;DHT22;33605;48.822;8.796;2023-11-21T18:13:47;12.50;60.00
47845;DHT22;33605;48.822;8.796;2023-11-21T18:16:14;12.40;59.90
47845;DHT22;33605;48.822;8.796;2023-11-21T18:18:40;12.40;59.90
47845;DHT22;33605;48.822;8.796;2023-11-21T18:21:06;12.40;59.90
47845;DHT22;33605;48.822;8.796;2023-11-21T18:23:32;12.40;59.90
47845;DHT22;33605;48.822;8.796;2023-11-21T18:26:00;12.40;60.00
47845;DHT22;33605;48.822;8.796;2023-11-21T18:28:26;12.40;60.00
47845;DHT22;33605;48.822;8.796;2023-11-21T18:30:51;12.40;60.00
47845;DHT22;33605;48.822;8.796;2023-11-21T18:33:17;12.40;60.00
47845;DHT22;33605;48.822;8.796;2023-11-21T18:35:45;12.40;60.00
47845;DHT22;33605;48.822;8.796;2023-11-21T18:38:11;12.40;60.00
47845;DHT22;33605;48.822;8.796;2023-11-21T18:40:36;12.30;60.00
47845;DHT22;33605;48.822;8.796;2023-11-21T18:43:03;12.30;60.00
47845;DHT22;33605;48.822;8.796;2023-11-21T18:45:29;12.30;60.10
47845;DHT22;33605;48.822;8.796;2023-11-21T18:47:54;12.30;60.10
47845;DHT22;33605;48.822;8.796;2023-11-21T18:50:20;12.40;60.20
47845;DHT22;33605;48.822;8.796;2023-11-21T18:52:46;12.30;60.10
47845;DHT22;33605;48.822;8.796;2023-11-21T18:55:15;12.30;60.10
47845;DHT22;33605;48.822;8.796;2023-11-21T18:57:41;12.30;60.00
47845;DHT22;33605;48.822;8.796;2023-11-21T19:00:07;12.30;60.00
47845;DHT22;33605;48.822;8.796;2023-11-21T19:02:35;12.30;60.00
47845;DHT22;33605;48.822;8.796;2023-11-21T19:05:01;12.30;60.00
47845;DHT22;33605;48.822;8.796;2023-11-21T19:07:29;12.30;60.00
47845;DHT22;33605;48.822;8.796;2023-11-21T19:09:59;12.30;60.00
47845;DHT22;33605;48.822;8.796;2023-11-21T19:12:25;12.30;60.00
47845;DHT22;33605;48.822;8.796;2023-11-21T19:14:50;12.20;59.90
47845;DHT22;33605;48.822;8.796;2023-11-21T19:17:16;12.30;60.00
47845;DHT22;33605;48.822;8.796;2023-11-21T19:19:43;12.30;60.00
47845;DHT22;33605;48.822;8.796;2023-11-21T19:22:10;12.30;60.00
47845;DHT22;33605;48.822;8.796;2023-11-21T19:24:35;12.20;59.90
47845;DHT22;33605;48.822;8.796;2023-11-21T19:27:01;12.20;59.90
47845;DHT22;33605;48.822;8.796;2023-11-21T19:29:28;12.20;60.00
47845;DHT22;33605;48.822;8.796;2023-11-21T19:31:53;12.20;60.00
47845;DHT22;33605;48.822;8.796;2023-11-21T19:34:20;12.20;60.00
47845;DHT22;33605;48.822;8.796;2023-11-21T19:36:46;12.20;60.00
47845;DHT22;33605;48.822;8.796;2023-11-21T19:39:11;12.20;60.00
47845;DHT22;33605;48.822;8.796;2023-11-21T19:41:38;12.20;59.90
47845;DHT22;33605;48.822;8.796;2023-11-21T19:44:04;12.20;59.90
47845;DHT22;33605;48.822;8.796;2023-11-21T19:46:30;12.10;59.90
47845;DHT22;33605;48.822;8.796;2023-11-21T19:48:56;12.20;60.40
47845;DHT22;33605;48.822;8.796;2023-11-21T19:51:21;12.10;59.90
47845;DHT22;33605;48.822;8.796;2023-11-21T19:53:47;12.10;59.90
47845;DHT22;33605;48.822;8.796;2023-11-21T19:56:13;12.10;59.90
47845;DHT22;33605;48.822;8.796;2023-11-21T19:58:39;12.10;59.90
47845;DHT22;33605;48.822;8.796;2023-11-21T20:01:08;12.10;60.00
47845;DHT22;33605;48.822;8.796;2023-11-21T20:03:35;12.10;60.00
47845;DHT22;33605;48.822;8.796;2023-11-21T20:06:04;12.10;60.00
47845;DHT22;33605;48.822;8.796;2023-11-21T20:08:31;12.10;60.00
47845;DHT22;33605;48.822;8.796;2023-11-21T20:10:57;12.10;60.00
47845;DHT22;33605;48.822;8.796;2023-11-21T20:13:23;12.10;60.00
47845;DHT22;33605;48.822;8.796;2023-11-21T20:15:48;12.10;60.00
47845;DHT22;33605;48.822;8.796;2023-11-21T20:18:14;12.00;60.00
47845;DHT22;33605;48.822;8.796;2023-11-21T20:20:40;12.00;60.00
47845;DHT22;33605;48.822;8.796;2023-11-21T20:23:05;12.00;59.90
47845;DHT22;33605;48.822;8.796;2023-11-21T20:25:31;12.00;60.30
47845;DHT22;33605;48.822;8.796;2023-11-21T20:27:56;12.00;59.80
47845;DHT22;33605;48.822;8.796;2023-11-21T20:30:23;12.00;59.80
47845;DHT22;33605;48.822;8.796;2023-11-21T20:32:53;12.00;59.80
47845;DHT22;33605;48.822;8.796;2023-11-21T20:35:18;12.00;59.80
47845;DHT22;33605;48.822;8.796;2023-11-21T20:37:45;12.00;59.80
47845;DHT22;33605;48.822;8.796;2023-11-21T20:40:14;12.00;59.80
47845;DHT22;33605;48.822;8.796;2023-11-21T20:42:39;12.00;59.80
47845;DHT22;33605;48.822;8.796;2023-11-21T20:45:11;12.00;59.80
47845;DHT22;33605;48.822;8.796;2023-11-21T20:47:39;11.90;59.70
47845;DHT22;33605;48.822;8.796;2023-11-21T20:50:06;11.90;59.70
47845;DHT22;33605;48.822;8.796;2023-11-21T20:52:32;11.90;59.70
47845;DHT22;33605;48.822;8.796;2023-11-21T20:54:59;11.90;59.60
47845;DHT22;33605;48.822;8.796;2023-11-21T20:57:24;11.90;59.60
47845;DHT22;33605;48.822;8.796;2023-11-21T20:59:50;11.90;59.60
47845;DHT22;33605;48.822;8.796;2023-11-21T21:02:16;11.90;59.60
47845;DHT22;33605;48.822;8.796;2023-11-21T21:04:42;11.90;59.50
47845;DHT22;33605;48.822;8.796;2023-11-21T21:07:09;11.90;59.50
47845;DHT22;33605;48.822;8.796;2023-11-21T21:09:35;11.90;59.40
47845;DHT22;33605;48.822;8.796;2023-11-21T21:12:01;11.90;59.40
47845;DHT22;33605;48.822;8.796;2023-11-21T21:14:27;11.90;59.40
47845;DHT22;33605;48.822;8.796;2023-11-21T21:16:55;11.90;59.30
47845;DHT22;33605;48.822;8.796;2023-11-21T21:19:20;11.80;59.10
47845;DHT22;33605;48.822;8.796;2023-11-21T21:21:46;11.90;59.20
47845;DHT22;33605;48.822;8.796;2023-11-21T21:24:12;11.80;59.10
47845;DHT22;33605;48.822;8.796;2023-11-21T21:26:37;11.80;59.10
47845;DHT22;33605;48.822;8.796;2023-11-21T21:29:04;11.80;59.10
47845;DHT22;33605;48.822;8.796;2023-11-21T21:31:31;11.80;59.00
47845;DHT22;33605;48.822;8.796;2023-11-21T21:33:58;11.80;59.00
47845;DHT22;33605;48.822;8.796;2023-11-21T21:36:23;11.70;58.90
47845;DHT22;33605;48.822;8.796;2023-11-21T21:38:49;11.70;58.80
47845;DHT22;33605;48.822;8.796;2023-11-21T21:41:17;11.70;58.90
47845;DHT22;33605;48.822;8.796;2023-11-21T21:43:44;11.70;59.00
47845;DHT22;33605;48.822;8.796;2023-11-21T21:46:17;11.70;59.10
47845;DHT22;33605;48.822;8.796;2023-11-21T21:48:44;11.70;59.20
47845;DHT22;33605;48.822;8.796;2023-11-21T21:51:19;11.70;59.20
47845;DHT22;33605;48.822;8.796;2023-11-21T21:53:45;11.70;59.30
47845;DHT22;33605;48.822;8.796;2023-11-21T21:56:12;11.70;59.40
47845;DHT22;33605;48.822;8.796;2023-11-21T21:58:40;11.70;59.50
47845;DHT22;33605;48.822;8.796;2023-11-21T22:01:06;11.70;59.50
47845;DHT22;33605;48.822;8.796;2023-11-21T22:03:31;11.70;59.50
47845;DHT22;33605;48.822;8.796;2023-11-21T22:05:57;11.70;59.60
47845;DHT22;33605;48.822;8.796;2023-11-21T22:08:27;11.70;59.60
47845;DHT22;33605;48.822;8.796;2023-11-21T22:10:52;11.70;59.70
47845;DHT22;33605;48.822;8.796;2023-11-21T22:13:18;11.70;59.70
47845;DHT22;33605;48.822;8.796;2023-11-21T22:15:43;11.70;59.70
47845;DHT22;33605;48.822;8.796;2023-11-21T22:18:09;11.80;59.80
47845;DHT22;33605;48.822;8.796;2023-11-21T22:20:35;11.80;59.90
47845;DHT22;33605;48.822;8.796;2023-11-21T22:23:01;11.80;59.90
47845;DHT22;33605;48.822;8.796;2023-11-21T22:25:26;11.80;59.90
47845;DHT22;33605;48.822;8.796;2023-11-21T22:27:52;11.80;59.90
47845;DHT22;33605;48.822;8.796;2023-11-21T22:30:19;11.80;59.90
47845;DHT22;33605;48.822;8.796;2023-11-21T22:32:45;11.80;59.90
47845;DHT22;33605;48.822;8.796;2023-11-21T22:35:11;11.80;59.90
47845;DHT22;33605;48.822;8.796;2023-11-21T22:37:37;11.80;59.90
47845;DHT22;33605;48.822;8.796;2023-11-21T22:40:04;11.80;59.90
47845;DHT22;33605;48.822;8.796;2023-11-21T22:42:32;11.80;59.90
47845;DHT22;33605;48.822;8.796;2023-11-21T22:44:58;11.80;60.00
47845;DHT22;33605;48.822;8.796;2023-11-21T22:47:24;11.80;60.00
47845;DHT22;33605;48.822;8.796;2023-11-21T22:49:50;11.90;60.00
47845;DHT22;33605;48.822;8.796;2023-11-21T22:52:15;11.90;60.00
47845;DHT22;33605;48.822;8.796;2023-11-21T22:54:41;11.90;60.00
47845;DHT22;33605;48.822;8.796;2023-11-21T22:57:06;11.90;60.00
47845;DHT22;33605;48.822;8.796;2023-11-21T22:59:32;11.90;60.00
47845;DHT22;33605;48.822;8.796;2023-11-21T23:01:57;11.90;60.40
47845;DHT22;33605;48.822;8.796;2023-11-21T23:04:23;11.90;60.00
47845;DHT22;33605;48.822;8.796;2023-11-21T23:06:49;11.90;60.00
47845;DHT22;33605;48.822;8.796;2023-11-21T23:09:15;11.90;60.00
47845;DHT22;33605;48.822;8.796;2023-11-21T23:11:41;11.90;60.00
47845;DHT22;33605;48.822;8.796;2023-11-21T23:14:08;11.90;60.00
47845;DHT22;33605;48.822;8.796;2023-11-21T23:16:35;11.80;59.90
47845;DHT22;33605;48.822;8.796;2023-11-21T23:19:01;11.80;59.90
47845;DHT22;33605;48.822;8.796;2023-11-21T23:21:27;11.80;59.90
47845;DHT22;33605;48.822;8.796;2023-11-21T23:23:55;11.80;59.80
47845;DHT22;33605;48.822;8.796;2023-11-21T23:26:22;11.80;59.90
47845;DHT22;33605;48.822;8.796;2023-11-21T23:28:48;11.80;59.90
47845;DHT22;33605;48.822;8.796;2023-11-21T23:31:15;11.80;59.90
47845;DHT22;33605;48.822;8.796;2023-11-21T23:33:41;11.80;59.90
47845;DHT22;33605;48.822;8.796;2023-11-21T23:36:07;11.80;59.90
47845;DHT22;33605;48.822;8.796;2023-11-21T23:38:32;11.80;59.90
47845;DHT22;33605;48.822;8.796;2023-11-21T23:40:59;11.80;60.00
47845;DHT22;33605;48.822;8.796;2023-11-21T23:43:24;11.80;60.00
47845;DHT22;33605;48.822;8.796;2023-11-21T23:45:54;11.80;60.00
47845;DHT22;33605;48.822;8.796;2023-11-21T23:48:20;11.80;60.00
47845;DHT22;33605;48.822;8.796;2023-11-21T23:50:46;11.80;60.00
47845;DHT22;33605;48.822;8.796;2023-11-21T23:53:11;11.80;60.10
47845;DHT22;33605;48.822;8.796;2023-11-21T23:55:37;11.80;60.10
47845;DHT22;33605;48.822;8.796;2023-11-21T23:58:03;11.80;60.10
